Latest Weather Observations for Hamilton Island

IDQ60801

Issued at 12:52 am EST Wednesday 20 March 2019 (issued every 10 minutes, with the page automatically refreshed every 10 minutes)

About weather observations | Map of weather stations | Latest weather observations for QLD | Other Formats
Station Details ID: 033106 Name: HAMILTON ISLAND AIRPORT Lat: -20.37 Lon: 148.95 Height: 58.66 m
Data from the previous 72 hours. | See also: Recent months at Hamilton Island
Date/Time
EST
Temp
°C
App
Temp
°C
Dew
Point
°C
Rel
Hum
%
Delta-T
°C
Wind Press
QNH
hPa
Press
MSL
hPa
Rain since
9am
mm
Dir  Spd
km/h
Gust
km/h
Spd
kts
Gust
kts
20/12:30am 26.5 31.1 23.8 85 1.9 N 6 7 3 4 1011.4 1011.1 0.0
20/12:00am 26.7 31.2 24.0 85 1.9 N 7 9 4 5 1011.6 1011.3 0.0
 
Date/Time
EST
Temp
°C
App
Temp
°C
Dew
Point
°C
Rel
Hum
%
Delta-T
°C
Wind Press
QNH
hPa
Press
MSL
hPa
Rain since
9am
mm
Dir  Spd
km/h
Gust
km/h
Spd
kts
Gust
kts
19/11:30pm 26.7 30.8 24.0 85 1.9 NE 9 13 5 7 1012.0 1011.7 0.0
19/11:00pm 26.9 30.2 23.8 83 2.1 NE 13 19 7 10 1012.3 1012.0 0.0
19/10:30pm 27.2 29.1 23.7 81 2.4 ENE 20 26 11 14 1012.6 1012.3 0.0
19/10:00pm 27.3 29.4 23.7 81 2.5 ENE 19 24 10 13 1012.7 1012.4 0.0
19/09:30pm 27.4 29.7 24.1 82 2.3 E 19 22 10 12 1012.7 1012.4 0.0
19/09:00pm 27.6 29.4 23.2 77 3.0 E 19 26 10 14 1012.6 1012.3 0.0
19/08:30pm 27.6 28.7 23.0 76 3.1 E 22 26 12 14 1012.3 1012.0 0.0
19/08:00pm 27.6 29.3 23.4 78 2.9 E 20 24 11 13 1011.8 1011.5 0.0
19/07:30pm 27.6 28.8 23.8 80 2.6 E 24 30 13 16 1011.4 1011.1 0.0
19/07:00pm 27.7 28.8 24.3 82 2.4 E 26 30 14 16 1011.1 1010.8 0.0
19/06:30pm 27.7 29.2 24.3 82 2.4 E 24 28 13 15 1011.0 1010.6 0.0
19/06:00pm 27.8 29.6 24.2 81 2.5 E 22 26 12 14 1010.6 1010.2 0.0
19/05:30pm 27.8 29.3 24.4 82 2.4 E 24 30 13 16 1010.1 1009.7 0.0
19/05:00pm 27.9 29.9 24.5 82 2.4 E 22 26 12 14 1009.8 1009.4 0.0
19/04:30pm 28.1 30.2 24.7 82 2.4 ESE 22 26 12 14 1009.9 1009.5 0.0
19/04:00pm 28.2 29.9 24.6 81 2.5 ESE 24 28 13 15 1009.6 1009.2 0.0
19/03:30pm 28.4 29.8 24.2 78 2.9 E 24 28 13 15 1009.5 1009.1 0.0
19/03:00pm 28.7 31.4 24.7 79 2.8 ESE 19 22 10 12 1009.8 1009.4 0.0
19/02:30pm 29.2 31.5 24.5 76 3.3 ESE 20 22 11 12 1010.1 1009.7 0.0
19/02:00pm 29.8 32.7 25.1 76 3.3 ESE 19 20 10 11 1010.4 1010.0 0.0
19/01:30pm 29.6 32.1 24.7 75 3.4 ESE 20 22 11 12 1010.6 1010.2 0.0
19/01:00pm 29.0 31.4 24.6 77 3.1 E 20 24 11 13 1011.0 1010.6 0.0
19/12:30pm 29.4 32.2 25.2 78 3.0 ESE 20 24 11 13 1011.4 1011.1 0.0
19/12:27pm 29.3 31.6 24.4 75 3.4 ESE 20 24 11 13 1011.4 1011.1 0.0
19/12:10pm 29.5 32.0 24.8 76 3.3 ESE 20 24 11 13 1011.6 1011.3 0.0
19/12:00pm 29.5 31.7 24.8 76 3.3 E 22 26 12 14 1011.7 1011.4 0.0
19/11:30am 29.4 31.2 25.4 79 2.8 E 26 30 14 16 1012.3 1012.0 0.0
19/11:00am 29.4 31.0 24.5 75 3.4 E 24 28 13 15 1012.6 1012.3 0.0
19/10:30am 29.1 30.5 24.2 75 3.4 E 24 28 13 15 1012.8 1012.5 0.0
19/10:00am 29.3 31.1 24.2 74 3.5 E 22 26 12 14 1012.9 1012.6 0.0
19/09:30am 29.4 31.0 24.5 75 3.4 E 24 32 13 17 1012.9 1012.6 0.0
19/09:00am 29.3 31.3 24.6 76 3.3 E 22 30 12 16 1012.8 1012.5 0.0
19/08:30am 28.6 29.7 24.4 78 2.9 E 26 33 14 18 1012.4 1012.1 0.0
19/08:00am 28.4 29.5 24.4 79 2.8 E 26 32 14 17 1012.0 1011.7 0.0
19/07:30am 27.5 29.2 24.1 82 2.4 E 22 28 12 15 1011.6 1011.3 0.0
19/07:00am 27.2 29.6 24.3 84 2.0 E 19 26 10 14 1011.2 1010.9 0.0
19/06:30am 26.7 26.8 23.2 81 2.4 E 28 37 15 20 1010.8 1010.4 0.0
19/06:00am 26.9 27.9 24.2 85 1.9 E 26 28 14 15 1010.6 1010.2 0.0
19/05:30am 26.8 28.8 24.5 87 1.6 E 22 24 12 13 1010.2 1009.8 0.0
19/05:00am 26.8 28.5 24.1 85 1.9 E 22 26 12 14 1009.9 1009.5 0.0
19/04:30am 26.8 28.3 24.3 86 1.7 ESE 24 26 13 14 1009.7 1009.3 0.0
19/04:00am 26.8 29.3 24.5 87 1.6 ESE 19 24 10 13 1009.5 1009.1 0.0
19/03:30am 26.7 29.0 24.4 87 1.6 ESE 20 22 11 12 1009.5 1009.1 0.0
19/03:00am 26.8 29.3 24.5 87 1.6 ESE 19 20 10 11 1009.5 1009.1 0.0
19/02:30am 26.9 29.2 24.4 86 1.7 ESE 20 24 11 13 1009.6 1009.2 0.0
19/02:00am 26.9 29.9 24.7 88 1.5 ESE 17 20 9 11 1009.6 1009.2 0.0
19/01:30am 27.0 29.9 24.5 86 1.7 E 17 20 9 11 1009.8 1009.4 0.0
19/01:00am 26.8 30.1 24.5 87 1.6 ESE 15 19 8 10 1010.3 1009.9 0.0
19/12:50am 26.9 29.8 24.5 87 1.7 ESE 17 20 9 11 1010.6 1010.2 0.0
19/12:37am 27.0 29.9 24.5 86 1.7 ESE 17 19 9 10 1010.8 1010.4 0.0
19/12:30am 27.0 29.9 24.5 86 1.7 ESE 17 20 9 11 1010.8 1010.4 0.0
19/12:00am 27.0 29.9 24.5 86 1.7 ESE 17 17 9 9 1011.0 1010.6 0.0
 
Date/Time
EST
Temp
°C
App
Temp
°C
Dew
Point
°C
Rel
Hum
%
Delta-T
°C
Wind Press
QNH
hPa
Press
MSL
hPa
Rain since
9am
mm
Dir  Spd
km/h
Gust
km/h
Spd
kts
Gust
kts
18/11:30pm 27.1 30.0 24.4 85 1.9 E 17 19 9 10 1011.5 1011.2 0.0
18/11:00pm 27.2 29.9 24.8 87 1.7 E 19 20 10 11 1011.9 1011.6 0.0
18/10:30pm 27.2 29.4 24.3 84 2.0 ESE 20 22 11 12 1012.1 1011.8 0.0
18/10:04pm 27.3 29.6 24.4 84 2.0 ESE 20 22 11 12 1012.2 1011.9 0.0
18/10:00pm 27.2 29.5 24.5 85 1.9 ESE 20 22 11 12 1012.3 1012.0 0.0
18/09:39pm 27.3 29.0 24.7 86 1.8 ESE 24 28 13 15 1012.3 1012.0 0.0
18/09:30pm 27.3 29.5 24.9 87 1.7 ESE 22 26 12 14 1012.4 1012.1 0.0
18/09:00pm 27.1 29.1 24.6 86 1.7 ESE 22 26 12 14 1012.3 1012.0 0.0
18/08:51pm 27.0 29.0 24.5 86 1.7 ESE 22 28 12 15 1012.3 1012.0 0.0
18/08:30pm 27.2 29.2 24.5 85 1.9 ESE 22 26 12 14 1012.1 1011.8 0.0
18/08:17pm 27.2 29.5 24.5 85 1.9 ESE 20 24 11 13 1012.1 1011.8 0.0
18/08:00pm 27.2 29.7 24.7 86 1.7 ESE 20 24 11 13 1011.8 1011.5 0.0
18/07:30pm 27.1 28.5 24.2 84 2.0 ESE 24 26 13 14 1011.5 1011.2 0.0
18/07:00pm 27.2 29.4 24.3 84 2.0 ESE 20 24 11 13 1011.3 1011.0 0.0
18/06:30pm 27.2 29.4 24.3 84 2.0 ESE 20 22 11 12 1011.0 1010.6 0.0
18/06:00pm 27.2 29.5 24.5 85 1.9 ESE 20 26 11 14 1010.8 1010.4 0.0
18/05:30pm 27.5 29.2 24.1 82 2.4 ESE 22 26 12 14 1010.8 1010.4 0.0
18/05:00pm 27.7 29.0 24.1 81 2.5 ESE 24 28 13 15 1010.5 1010.1 0.0
18/04:30pm 27.9 29.5 23.9 79 2.8 ESE 22 26 12 14 1010.3 1009.9 0.0
18/04:00pm 28.1 29.7 23.9 78 2.9 ESE 22 28 12 15 1010.1 1009.7 0.0
18/03:30pm 28.4 30.2 24.2 78 2.9 ESE 22 26 12 14 1010.2 1009.8 0.0
18/03:00pm 28.5 30.1 23.9 76 3.2 ESE 22 28 12 15 1010.5 1010.1 0.0
18/02:30pm 28.9 29.8 23.3 72 3.8 ESE 24 32 13 17 1010.5 1010.1 0.0
18/02:00pm 28.9 29.8 23.3 72 3.9 E 24 28 13 15 1010.8 1010.4 0.0
18/01:30pm 29.2 31.3 24.7 77 3.1 ESE 22 28 12 15 1011.1 1010.8 0.0
18/01:00pm 29.1 30.9 24.2 75 3.4 ESE 22 28 12 15 1011.5 1011.2 0.0
18/12:30pm 28.7 30.4 24.0 76 3.3 ESE 22 28 12 15 1012.0 1011.7 0.0
18/12:00pm 29.5 31.2 24.1 72 3.8 ESE 22 26 12 14 1012.6 1012.3 0.0
18/11:30am 29.0 30.8 24.3 76 3.3 ESE 22 24 12 13 1012.8 1012.5 0.0
18/11:00am 29.4 31.5 24.7 76 3.3 ESE 22 26 12 14 1013.0 1012.7 0.0
18/10:30am 29.1 31.2 24.7 77 3.1 ESE 22 26 12 14 1013.0 1012.7 0.0
18/10:00am 28.0 29.7 24.0 79 2.8 ESE 22 26 12 14 1013.3 1013.0 0.0
18/09:30am 27.6 28.9 23.4 78 2.9 ESE 22 26 12 14 1013.3 1013.0 0.0
18/09:00am 27.7 29.0 24.1 81 2.5 ESE 24 28 13 15 1013.2 1012.9 0.2
18/08:30am 27.4 28.6 23.8 81 2.5 ESE 24 28 13 15 1013.0 1012.7 0.2
18/08:00am 27.4 28.5 24.3 83 2.2 ESE 26 30 14 16 1012.6 1012.3 0.2
18/07:30am 27.0 28.2 23.9 83 2.1 ESE 24 28 13 15 1012.2 1011.9 0.2
18/07:00am 26.9 28.7 23.6 82 2.3 E 20 24 11 13 1012.1 1011.8 0.2
18/06:30am 26.8 28.6 23.3 81 2.4 E 19 24 10 13 1011.7 1011.4 0.2
18/06:00am 26.7 28.4 23.4 82 2.3 E 20 24 11 13 1011.3 1011.0 0.2
18/05:30am 26.7 28.5 23.6 83 2.1 E 20 24 11 13 1011.2 1010.9 0.2
18/05:00am 26.6 28.5 23.5 83 2.1 E 19 20 10 11 1011.1 1010.8 0.2
18/04:30am 26.6 27.5 23.3 82 2.3 E 24 28 13 15 1010.7 1010.3 0.2
18/04:00am 26.5 28.3 23.6 84 2.0 ESE 20 26 11 14 1010.6 1010.2 0.2
18/03:30am 26.5 28.2 23.4 83 2.1 ESE 20 26 11 14 1010.5 1010.1 0.2
18/03:00am 26.4 28.5 23.7 85 1.9 ESE 19 22 10 12 1010.6 1010.2 0.2
18/02:30am 26.3 28.3 23.6 85 1.9 ESE 19 22 10 12 1010.8 1010.4 0.2
18/02:00am 26.5 28.7 24.0 86 1.7 ESE 19 24 10 13 1011.1 1010.8 0.2
18/01:30am 26.4 28.6 23.9 86 1.7 ESE 19 22 10 12 1011.4 1011.1 0.2
18/01:00am 26.3 28.3 24.0 87 1.6 SE 20 22 11 12 1011.7 1011.4 0.2
18/12:30am 26.3 28.8 23.8 86 1.7 SE 17 20 9 11 1012.2 1011.9 0.2
18/12:22am 26.5 28.6 23.8 85 1.9 ESE 19 20 10 11 1012.3 1012.0 0.2
18/12:07am 26.6 28.8 23.9 85 1.9 ESE 19 20 10 11 1012.4 1012.1 0.2
18/12:00am 26.5 28.9 23.6 84 2.0 ESE 17 20 9 11 1012.4 1012.1 0.2
 
Date/Time
EST
Temp
°C
App
Temp
°C
Dew
Point
°C
Rel
Hum
%
Delta-T
°C
Wind Press
QNH
hPa
Press
MSL
hPa
Rain since
9am
mm
Dir  Spd
km/h
Gust
km/h
Spd
kts
Gust
kts
17/11:30pm 26.5 29.5 23.4 83 2.1 ESE 13 15 7 8 1012.5 1012.2 0.2
17/11:00pm 26.7 30.6 23.6 83 2.1 E 9 13 5 7 1012.8 1012.5 0.2
17/10:30pm 26.6 30.4 23.5 83 2.1 ENE 9 11 5 6 1013.3 1013.0 0.2
17/10:00pm 26.7 30.5 23.4 82 2.3 NE 9 13 5 7 1013.4 1013.1 0.2
17/09:30pm 26.8 30.0 23.1 80 2.5 NE 11 15 6 8 1013.4 1013.1 0.2
17/09:00pm 26.9 29.6 23.4 81 2.4 ENE 15 17 8 9 1013.3 1013.0 0.2
17/08:30pm 27.0 29.3 22.8 78 2.9 NE 15 20 8 11 1013.3 1013.0 0.2
17/08:00pm 27.1 29.2 23.1 79 2.7 ENE 17 22 9 12 1012.7 1012.4 0.2
17/07:30pm 27.1 28.6 23.1 79 2.7 ENE 20 26 11 14 1012.5 1012.2 0.2
17/07:00pm 27.1 28.4 22.7 77 3.0 ENE 20 28 11 15 1012.1 1011.8 0.2
17/06:30pm 27.0 29.2 22.6 77 3.0 E 15 19 8 10 1011.6 1011.3 0.2
17/06:00pm 27.2 28.3 22.4 75 3.2 ENE 20 26 11 14 1011.5 1011.2 0.2
17/05:30pm 27.4 28.5 22.4 74 3.4 ENE 20 26 11 14 1011.2 1010.9 0.2
17/05:00pm 27.7 28.7 22.2 72 3.7 ENE 20 28 11 15 1011.1 1010.8 0.2
17/04:30pm 27.7 28.0 22.2 72 3.7 E 24 30 13 16 1010.9 1010.5 0.2
17/04:00pm 28.1 28.4 22.3 70 3.9 E 24 30 13 16 1010.7 1010.3 0.2
17/03:30pm 27.9 28.0 21.9 70 4.0 E 24 28 13 15 1010.7 1010.3 0.2
17/03:00pm 28.1 28.3 22.1 70 4.1 E 24 28 13 15 1010.8 1010.4 0.2
17/02:30pm 28.6 29.5 22.6 70 4.1 E 22 26 12 14 1010.9 1010.5 0.2
17/02:00pm 28.7 29.8 23.1 71 3.8 E 22 28 12 15 1011.1 1010.8 0.2
17/01:30pm 29.1 30.9 23.5 72 3.9 E 20 26 11 14 1011.3 1011.0 0.2
17/01:00pm 28.8 30.3 23.0 71 4.0 E 20 26 11 14 1011.6 1011.3 0.2
17/12:30pm 28.9 30.3 22.9 70 4.1 E 20 24 11 13 1011.8 1011.5 0.2
17/12:00pm 29.1 30.4 22.6 68 4.4 ESE 20 22 11 12 1012.3 1012.0 0.2
17/11:30am 28.8 30.1 22.3 68 4.4 ESE 19 22 10 12 1012.5 1012.2 0.2
17/11:00am 29.1 31.0 22.8 69 4.3 E 17 20 9 11 1012.8 1012.5 0.0
17/10:30am 29.1 31.6 23.8 73 3.7 ESE 17 20 9 11 1013.3 1013.0 0.0
17/10:00am 28.5 30.4 23.4 74 3.5 E 19 22 10 12 1013.4 1013.1 0.0
17/09:30am 28.1 29.2 22.3 70 3.9 E 20 24 11 13 1013.4 1013.1 0.0
17/09:00am 27.7 29.5 23.3 77 3.0 E 19 24 10 13 1013.1 1012.8 0.4
17/08:30am 27.3 31.4 22.9 77 3.0 NE 6 7 3 4 1013.2 1012.9 0.4
17/08:00am 27.1 30.8 22.5 76 3.1 ENE 7 11 4 6 1012.8 1012.5 0.0
17/07:30am 27.3 30.9 23.1 78 2.9 ENE 9 11 5 6 1012.3 1012.0 0.0
17/07:00am 26.7 30.3 23.0 80 2.5 ENE 9 13 5 7 1012.0 1011.7 0.0
17/06:30am 26.1 29.6 22.8 82 2.2 NE 9 13 5 7 1011.6 1011.3 0.0
17/06:00am 25.9 28.4 22.4 81 2.4 NNE 13 17 7 9 1011.1 1010.8 0.0
17/05:30am 25.9 28.4 22.4 81 2.4 NE 13 15 7 8 1011.0 1010.6 0.0
17/05:00am 26.0 28.9 22.5 81 2.4 NE 11 15 6 8 1010.9 1010.5 0.0
17/04:30am 26.0 29.1 22.9 83 2.1 NNE 11 15 6 8 1010.8 1010.4 0.0
17/04:00am 26.0 30.2 23.1 84 2.0 N 6 11 3 6 1010.7 1010.3 0.0
17/03:30am 26.1 30.0 23.0 83 2.1 NNE 7 11 4 6 1010.8 1010.4 0.0
17/03:00am 26.0 29.9 22.9 83 2.1 NNE 7 9 4 5 1011.0 1010.6 0.0
17/02:30am 26.1 29.4 22.6 81 2.4 NNE 9 13 5 7 1011.1 1010.8 0.0
17/02:00am 26.1 26.6 22.0 78 2.8 NE 22 32 12 17 1011.3 1011.0 0.0
17/01:30am 26.3 29.1 23.0 82 2.2 NE 13 19 7 10 1011.8 1011.5 0.0
17/01:00am 26.4 29.9 22.9 81 2.4 NE 9 13 5 7 1012.3 1012.0 0.0

Other formats

Comma delimited format used in spreadsheet applications
http://www.bom.gov.au/fwo/IDQ60801/IDQ60801.94368.axf

JavaScript Object Notation format (JSON) in row-major order
http://www.bom.gov.au/fwo/IDQ60801/IDQ60801.94368.json

Data quality

Most of these data are generated automatically and are frequently updated. Quality checks on data are not normally performed. It is possible for incorrect values to appear. Refer to information at About Latest Weather Observations and please check the disclaimer before using these data.